Relevés horaires Beauvechain (Belgique)


Relevés horaires à Beauvechain - Mercredi 22 Juill. 2020
Heure UTC1 Température [°C] Vent [km/h] Hum. [%] Pres.4 [hPa] Visi. [Km] Nébu. [octa] Préc.5 [mm] Cond.
2m. Res. Ros. Dir.2 Vit. Moy. Raf.3
23:00 14.0 14.0 7.4 NNO 1.9 -- 0.0 64 1021.3(0.0/3h) 20 -- -- --
22:00 14.9 14.9 7.2 NNO 1.9 -- 5.6 60 1021.2(0.1/3h) 20 -- -- --
21:00 15.8 15.8 7.0 NNO 1.9 -- 9.3 56 1021.2(0.3/3h) 20 -- -- --
20:00 16.3 16.3 7.3 NNO 1.9 -- 3.7 55 1021.2(0.3/3h) 20 -- -- --
19:00 18.5 18.5 7.7 N 3.7 -- 9.3 49 1020.8(-0.3/3h) 20 -- -- --
18:00 19.8 19.8 7.5 N 5.6 -- 16.7 45 1020.7(-1.1/3h) 20 -- -- --
17:00 20.3 20.3 7.6 N 7.4 -- 11.1 44 1020.7(-1.6/3h) 20 -- -- --
16:00 20.5 20.5 8.0 N 5.6 -- 13.0 44 1021.2(-1.5/3h) 20 4/8 -- --
15:00 21.3 21.3 7.7 N 7.4 -- 16.7 41 1021.8(-1.3/3h) 20 3/8 -- --
14:00 20.4 20.4 5.5 N 3.7 -- 16.7 38 1022.3(-1.2/3h) 20 5/8 -- --
13:00 20.4 20.4 5.8 NNO 5.6 -- 13.0 38 1022.7(-1.4/3h) 20 5/8 -- --
12:00 19.3 19.3 5.9 NNO 3.7 -- 11.1 41 1023.2(-1.2/3h) 20 5/8 -- --
11:00 19.6 19.6 6.9 NNE 3.7 -- 9.3 44 1023.7(-0.7/3h) 20 4/8 -- --
10:00 17.5 17.5 7.3 N 3.7 -- 9.3 51 1024.4(-0.1/3h) 20 4/8 -- --
09:00 17.5 17.5 9.3 N 3.7 -- 9.3 59 1024.5(0.0/3h) 20 4/8 -- --
08:00 15.4 15.4 8.5 N 3.7 -- 7.4 63 1024.7(0.1/3h) 20 4/8 -- --
07:00 14.2 14.2 8.6 NNE 5.6 -- 7.4 69 1024.7(-0.3/3h) 20 1/8 -- --
06:00 12.1 12.1 9.3 NNO 1.9 -- 5.6 83 1024.7(-0.6/3h) 20 1/8 -- --
05:00 10.0 10.0 8.1 NNO 1.9 -- 1.9 88 1025(-0.6/3h) 20 1/8 -- --
04:00 9.6 9.6 7.8 NNO 1.9 -- 1.9 89 1025.2(-0.7/3h) 20 -- -- --
03:00 10.1 10.1 8.0 NNO 1.9 -- 5.6 87 1025.5(-0.5/3h) 20 -- -- --
02:00 10.4 10.4 7.8 NNO 1.9 -- 5.6 84 1025.7(0.0/3h) 20 -- -- --
01:00 11.0 11.0 7.4 NNO 1.9 -- 3.7 78 1026(0.5/3h) 20 -- -- --
00:00 11.6 11.6 7.4 NNO 1.9 -- 11.1 75 1026(0.9/3h) 20 -- -- --

1 Coordinated Universal Time. Actuellement il est 17:00 locale et 15:00 UTC.

2 Le vent souffle depuis la direction indiquée vers la direction oposée.

3 Les rafales max. sont disponible 40 min après l'heure du relevé.

4 Pour les stations d'altitude (plus de 600m) le géopotentiel du niveau le plus proche de la pression obligatoire est indiqué.

5 Les stations disposant d'un diffuseur peuvent indiquer "trace". Cela signifie que des précipitations ont touchés le sol mais que la quantité est inférieure à 0.1 mm.

Récapitulatif de la journée
Température [°C] Vent [km/h] Ensoleillement4 [h] Precipitations totale5 [mm] Pression [Hpa]
Min1 Max.2 Moy.3 Max. Min Max.
9.3 22.2 0 16.7 0 h 0 min 0 1020.7 1026.0

1 Température minimale relevée entre 18:00 UTC la veille et 18:00 UTC le jour donné.

2 Température maximale relevée entre 06:00 UTC le jour donné et 06:00 UTC le lendemain.

3 Vent moyen de la journée basé sur les relevés horaires.

4 Ensoleillement en heures relevé entre 06:00 UTC la veille et 06:00 UTC le jour donné.

5 Précipitations totales tombées entre 06:00 UTC la jour donné et 06:00 UTC le lendemain.

Graphiques horaires